Main page
METAR-TAF:

METAR-TAF

Airports :

Gran Canaria Airport

Gran Canaria, Spain

latitude: 27-56N, longitude: 015-23W, elevation: 23 m

Current weather observation

The report was made 19 minutes ago, at 05:00 UTC
Wind 17 kt from the North
Temperature 18°C
Humidity 59%
Pressure 1015 hPa
Visibility 10 km or more
Broken clouds at a height of 4500 ft

METAR: GCLP 200500Z 35017KT 9999 BKN045 18/10 Q1015 WS ALL RWY NOSIG

Time: 06:19 (05:19 UTC)

Forecast

The report was made 3 hours and 19 minutes ago, at 02:00 UTC
Forecast valid from 20 at 03 UTC to 21 at 03 UTC
Wind 16 kt from the North
Visibility 10 km or more
Scattered clouds at a height of 3000 ft
Probability 30% :
Temporary
from 20 at 07 UTC to 20 at 09 UTC
drizzle
Probability 30% :
Temporary
from 20 at 10 UTC to 20 at 19 UTC
Wind 22 kt from the North with gusts up to 32 kt

TAF: GCLP 200200Z 2003/2103 35016KT 9999 SCT030 TX22/2014Z TN17/2006Z PROB30 TEMPO 2007/2009 DZ PROB30 TEMPO 2010/2019 01022G32KT

Weather observations and forecasts of more than 4000 airports (METAR and TAF reports).

The available stations are represented by yellow and red dots on the map.

Hover mouse over dot to see the name of the station.

Then click to see weather observations and forecasts.

To change the map : click on the green buttons with a black cross to zoom in, on the green button with a dash to zoom out, or on the green arrows for adjacent maps.


METAR-TAF: